14.02 Новое объявление администрации, поздравительное. Непосредственно поздравления и признания ищите в блокноте приятностей.
11.02 Новое объявление: у нас праздник, но подарок, кажется, будет завтра ^^
Дорогие гости, добро пожаловать в «Аркхем». Мы играем мистику, фэнтези, ужасы и приключения в авторском мире, вдохновленном мистическими подростковыми сериалами, вроде «Волчонка» и «Леденящих душу приключений Сабрины», и произведениями Г. Ф. Лавкрафта.

На форуме может присутствовать контент 18+
Квест: призрачная охота

Множество активных героев, которые не побоялись рискнуть
Активисты недели:
Новый рекорд Аркхема:
Стоит обратить внимание:
Мы не знали, что здесь писать. Но что-то да надо было. Потому мы здесь и пишем. Если вы это читаете, значит будете знать, что др Илая наконец-то прошло!
полезные ссылки

Arkham

Информация о пользователе

Привет, Гость! Войдите или зарегистрируйтесь.


Вы здесь » Arkham » Сгоревшие рукописи


Сгоревшие рукописи

Тем 31 страница 60 из 80

Тема Ответов Просмотров Последнее сообщение
31 troubles in el-paso  Harvey Ryker
3 166 10-01-2019 20:53:13  Rosalinda Martinez
0 174 09-01-2019 17:21:44  Gwendolyn Nightshade
33 save me  Margaret Fontaine
1 52 09-01-2019 15:17:14  Magnus Rodricks
11 395 07-01-2019 23:38:46  Oliver Templeton
35 [AU] Dead Black Heart  Roderick Ambrose
1 38 07-01-2019 18:14:31  Alfie Virgil
0 431 07-01-2019 16:19:50  Warren Graham
0 56 30-12-2018 20:17:28  Elijah Fontaine
1 84 28-12-2018 04:34:23  Goran Djatlov
1 67 28-12-2018 00:29:44  Aspen Starling
0 180 27-12-2018 03:57:57  Aspen Starling
1 267 24-12-2018 20:05:11  Grace Gosling
42 Горан, дракон  Goran Djatlov
1 288 23-12-2018 20:00:22  Goran Djatlov
3 157 23-12-2018 17:42:45  Vendetta Marlowe
0 213 21-12-2018 00:00:56  Margaret Fontaine
45 Unstoppable  Roderick Ambrose
2 132 20-12-2018 21:02:51  Roderick Ambrose
0 26 19-12-2018 15:19:49  Alexandra Calvert
4 183 19-12-2018 09:22:40  Ștefan Nygaard
1 339 16-12-2018 19:37:02  Tessa Nygaard
49 крики в никуда  Elijah Fontaine
2 232 16-12-2018 13:59:24  Elijah Fontaine
1 353 15-12-2018 22:36:14  Rosalinda Martinez
51 ready to go  Magnus Rodricks
0 55 14-12-2018 21:49:46  Magnus Rodricks
1 306 13-12-2018 20:50:38  Harvey Ryker
53 zu asche, zu staub  Mark J. Král
4 332 12-12-2018 18:04:01  Mark J. Král
54 beneficial cooperation  Erica Templeton
3 154 11-12-2018 13:40:26  Edwin Milton
4 236 11-12-2018 13:09:12  Daniel Grizzels
56 That Awkward Moment  Letha Moore
3 178 10-12-2018 18:37:34  Letha Moore
57 [AU] Warriors  Anthony Dankovsky
9 445 09-12-2018 12:22:23  Derek Sage
0 283 05-12-2018 16:53:16  Rage Frost
0 342 05-12-2018 12:42:31  Alexandra Calvert
0 301 04-12-2018 19:27:39  Marlin Templeton

Вы здесь » Arkham » Сгоревшие рукописи